Share

Hamilton, ND (58238)

11:27 PM CDT on April 23, 2014 (GMT -0500)
Cavalier (K2C8) Elev 892 ft | 48.78 °N, 97.63 °W | Change Station
Active Advisory: Flood Warning

Current weather conditions updated 12 minutes ago

Overcast
Overcast
37 °F
Feels Like 30 °F
N
10
Wind Variable Wind from SE
Gusts 23 mph
Sunrise 6:23 AM
Sunset 8:33 PM
Moon Waning Crescent

Tomorrow is forecast to be Warmer than today. Chance of showers.

Pressure 29.85 in
Visibility 9.0 miles
Clouds Few 1100 ft
Overcast 1700 ft
Windchill 30 °F
Dew Point 36 °F
Humidity 93%
Rainfall 0.03 in
Snow Depth Not available.
UV 0 out of 16
Pollen 7.80 out of 12
Air Quality Not available.
Flu Activity Sporadic
METAR K2C8 240415Z AUTO 13009G20KT 9SM FEW011 OVC017 03/02 A2985 RMK AO2

More Conditions Fewer Conditions

Pressure 29.85 in
Visibility 9.0 miles
Clouds Few 1100 ft
Overcast 1700 ft
Windchill 30 °F
Dew Point 36 °F
Humidity 93%
Rainfall 0.03 in
Snow Depth Not available.
UV 0 out of 16
Pollen 7.80 out of 12
Air Quality Not available.
Flu Activity Sporadic
METAR K2C8 240415Z AUTO 13009G20KT 9SM FEW011 OVC017 03/02 A2985 RMK AO2

More Conditions Fewer Conditions

10-Day Weather Forecast

Almanac

Astronomy

Apr. 23, 2014 Rise Set
Actual Time 6:23 AM CDT 8:33 PM CDT
Civil Twilight 5:49 AM CDT 9:07 PM CDT
Nautical Twilight 5:07 AM CDT 9:50 PM CDT
Astronomical Twilight 4:19 AM CDT 10:39 PM CDT
Moon 3:27 AM CDT (4/23) 2:14 PM CDT (4/23)
Length of Visible Light 15h 18m
Length of Day
14h 09m
Tomorrow will be 3m 20s longer.
Waning Crescent, 29% of the Moon is Illuminated
Apr 24
Waning Crescent
Apr 29
New
May 6
First Quarter
May 14
Full
May 21
Last Quarter

Today's Extremes

State Highs State Lows

Community

  • Stacked
    Stacked
  • Balance
    Balance
  • Nestled In
    Nestled In
  • Stunning Sunrise
    Stunning Sunrise
  • spring flowers
    spring flowers

WunderPhotos

Upload Photos

1,704,560 photos uploaded!

WunderBlogs® & News

Nearby

Snow Depth

Station Depth Elevation
No new snow has been reported.

Coastal Water Temperatures

Place Temperature
No Stations Reporting

Earthquake Activity

City Distance Mag. Time & Date
No recent earthquake activity has been reported nearby.
Minimum magnitude displayed is 2.5.

Nearby Weather Stations

Station Location Temp. Windchill Dew Point Humidity Wind Precip. Elev Updated Type
Hoople nd, Hoople, ND 36.8 °F 29 °F 35 °F 92% ESE  at  11.0 mph 0.02 in / hr 870 ft 11:24 PM CDT Normal

Show More Stations Show Fewer Stations

What do you think?

We're not finished. Please let us know what you like, what you don't like, and what you are still missing.